Nearby METAR Reports

 

KCOS - Colorado Springs, Colorado, USA
Distance from station: S 6mi, 9km
Updated: Tue, 12-Dec-2017 7:54am MST
Clear
Clear
 Wind from N
Wind: N 7 mph , 11 km/h
Temperature: 30°F , -1°C
Wind Chill: 23°F , -5°C
Dew Point: 7°F , -14°C
Humidity: 37%
Barometer: 30.40 inHg , 1029.5 hPa
Clouds: Clear
Visibility: 10 miles , 16 km
2017/12/12 14:54 KCOS 121454Z 01006KT 10SM CLR M01/M14 A3040 RMK AO2 SLP317 T10061139 56006
KAFF - Usaf Academy/Cos, Colorado, USA
Distance from station: NW 7mi, 12km
Updated: Tue, 12-Dec-2017 7:58am MST
Clear
Clear
 Wind from N
Wind: N 9 mph , 15 km/h
Temperature: 23°F , -5°C
Wind Chill: 13°F , -11°C
Dew Point: 7°F , -14°C
Humidity: 50%
Barometer: 30.39 inHg , 1029.1 hPa
Clouds: Clear
Visibility: 10 miles , 16 km
2017/12/12 14:58 KAFF 121458Z AUTO 01008KT 10SM CLR M05/M14 A3039 RMK AO2 SLP341 T10501141 55005
 
KFLY - Co Spngs Meadow, Colorado, USA
Distance from station: ENE 8mi, 13km
Updated: Tue, 12-Dec-2017 8:35am MST
Clear
Clear
 Wind from W
Wind: W 7 mph , 11 km/h
Temperature: 45°F , 7°C
Wind Chill: 41°F , 5°C
Dew Point: 9°F , -13°C
Humidity: 23%
Barometer: 30.42 inHg , 1030.1 hPa
Clouds: Clear
Visibility: 10 miles , 16 km
2017/12/12 15:35 KFLY 121535Z AUTO 27006KT 10SM CLR 07/M13 A3042 RMK AO2 T00651132
KFCS - Fort Carson, Colorado, USA
Distance from station: S 17mi, 27km
Updated: Tue, 12-Dec-2017 7:58am MST
Clear
Clear
 Wind from NNW
Wind: NNW 9 mph , 15 km/h
Temperature: 30°F , -1°C
Wind Chill: 22°F , -6°C
Dew Point: 7°F , -14°C
Humidity: 37%
Barometer: 30.38 inHg , 1028.8 hPa
Clouds: Clear
Visibility: 10 miles , 16 km
2017/12/12 14:58 KFCS 121458Z AUTO 33008KT 10SM CLR M01/M14 A3038 RMK AO2 SLP323 T10131138 56006 $
 
KMNH - Monument/Elbert, Colorado, USA
Distance from station: N 22mi, 35km
Updated: Tue, 12-Dec-2017 8:30am MST
Clear
Clear
 Wind from SSW
Wind: SSW 5 mph , 7 km/h
Temperature: 37°F , 3°C
Wind Chill: 33°F , 1°C
Dew Point: 10°F , -12°C
Humidity: 33%
Barometer: 30.40 inHg , 1029.5 hPa
Clouds: Clear
Visibility: 7 miles , 11 km
2017/12/12 15:30 KMNH 121530Z AUTO 21004KT 7SM CLR 03/M12 A3040 RMK AO2
K1V6 - Canon City, Colorado, USA
Distance from station: SSW 39mi, 62km
Updated: Tue, 12-Dec-2017 8:30am MST
Clear
Clear
 Wind from W
Wind: W 5 mph , 7 km/h
Temperature: 37°F , 3°C
Wind Chill: 33°F , 1°C
Dew Point: 10°F , -12°C
Humidity: 33%
Barometer: 30.39 inHg , 1029.1 hPa
Clouds: Clear
Visibility: 10 miles , 16 km
2017/12/12 15:30 K1V6 121530Z AUTO 26004KT 10SM CLR 03/M12 A3039 RMK AO2
 
KPUB - Pueblo, Colorado, USA
Distance from station: SSE 44mi, 71km
Updated: Tue, 12-Dec-2017 7:53am MST
Clear
Clear
 Wind from W
Wind: W 5 mph , 7 km/h
Temperature: 21°F , -6°C
Wind Chill: 14°F , -10°C
Dew Point: 7°F , -14°C
Humidity: 54%
Barometer: 30.40 inHg , 1029.5 hPa
Clouds: Clear
Visibility: 10 miles , 16 km
2017/12/12 14:53 KPUB 121453Z 26004KT 10SM CLR M06/M14 A3040 RMK AO2 SLP330 T10561139 56006
KAPA - Denver/Arapahoe, Colorado, USA
Distance from station: N 47mi, 75km
Updated: Tue, 12-Dec-2017 7:53am MST
Clear
Clear
 Wind from S
Wind: S 6 mph , 9 km/h
Temperature: 37°F , 3°C
Wind Chill: 32°F , 0°C
Dew Point: 12°F , -11°C
Humidity: 35%
Barometer: 30.35 inHg , 1027.8 hPa
Clouds: Clear
Visibility: 10 miles , 16 km
2017/12/12 14:53 KAPA 121453Z 19005KT 10SM CLR 03/M11 A3035 RMK AO2 SLP295 T00331111 58005